CYM9P EGOV-EGFF
Flight info
| Callsign | CYM9P |
|---|---|
| Flight time | 0h 24m |
| Altitude | 15000 |
| Route | BERUL DCT MEDOG DCT OGPUV |
| Aircraft | A320/M-SDE3FGHIRWY/LB1 |
Departure
| Time | 2026-05-05 16:48 |
|---|---|
| Airport | Anglesey Airport (EGOV) |
Arrival
| Time | 2026-05-05 17:13 |
|---|---|
| Airport | Cardiff International Airport (EGFF) |
| Time | Latitude | Longitude | Altitude | Speed | Heading |
|---|---|---|---|---|---|
| 2026-05-05 16:36 | 53.25526 | -4.53625 | 34 ft | 0 kts | 269° |
| 2026-05-05 16:43 | 53.25523 | -4.53640 | 34 ft | 7 kts | 247° |
| 2026-05-05 16:43 | 53.25435 | -4.53683 | 34 ft | 17 kts | 187° |
| 2026-05-05 16:44 | 53.25310 | -4.53707 | 31 ft | 19 kts | 185° |
| 2026-05-05 16:44 | 53.25174 | -4.53728 | 34 ft | 18 kts | 176° |
| 2026-05-05 16:44 | 53.25077 | -4.53585 | 35 ft | 20 kts | 128° |
| 2026-05-05 16:44 | 53.24987 | -4.53408 | 35 ft | 21 kts | 130° |
| 2026-05-05 16:45 | 53.24889 | -4.53210 | 35 ft | 23 kts | 130° |
| 2026-05-05 16:45 | 53.24786 | -4.53018 | 36 ft | 23 kts | 130° |
| 2026-05-05 16:45 | 53.24679 | -4.52798 | 33 ft | 24 kts | 129° |
| 2026-05-05 16:45 | 53.24574 | -4.52589 | 33 ft | 22 kts | 129° |
| 2026-05-05 16:46 | 53.24473 | -4.52395 | 34 ft | 23 kts | 132° |
| 2026-05-05 16:46 | 53.24369 | -4.52195 | 37 ft | 23 kts | 130° |
| 2026-05-05 16:46 | 53.24259 | -4.51974 | 33 ft | 23 kts | 129° |
| 2026-05-05 16:46 | 53.24149 | -4.51902 | 31 ft | 13 kts | 196° |
| 2026-05-05 16:47 | 53.24129 | -4.51919 | 30 ft | 1 kts | 214° |
| 2026-05-05 16:47 | 53.24128 | -4.51921 | 30 ft | 0 kts | 215° |
| 2026-05-05 16:47 | 53.24082 | -4.52097 | 29 ft | 17 kts | 306° |
| 2026-05-05 16:48 | 53.24225 | -4.52378 | 33 ft | 65 kts | 311° |
| 2026-05-05 16:48 | 53.24655 | -4.53222 | 34 ft | 123 kts | 310° |
| 2026-05-05 16:48 | 53.25296 | -4.54486 | 180 ft | 153 kts | 309° |
| 2026-05-05 16:48 | 53.25942 | -4.55799 | 911 ft | 144 kts | 307° |
| 2026-05-05 16:49 | 53.26579 | -4.57127 | 1478 ft | 148 kts | 307° |
| 2026-05-05 16:49 | 53.27196 | -4.58500 | 2059 ft | 148 kts | 292° |
| 2026-05-05 16:49 | 53.27189 | -4.60224 | 2422 ft | 163 kts | 245° |
| 2026-05-05 16:49 | 53.26404 | -4.61731 | 2674 ft | 186 kts | 212° |
| 2026-05-05 16:50 | 53.25076 | -4.62244 | 2924 ft | 213 kts | 173° |
| 2026-05-05 16:50 | 53.23600 | -4.61404 | 3266 ft | 238 kts | 154° |
| 2026-05-05 16:50 | 53.22047 | -4.60107 | 3699 ft | 260 kts | 154° |
| 2026-05-05 16:50 | 53.20410 | -4.58712 | 4474 ft | 267 kts | 154° |
| 2026-05-05 16:51 | 53.18743 | -4.57283 | 5356 ft | 271 kts | 153° |
| 2026-05-05 16:51 | 53.17058 | -4.55838 | 6230 ft | 274 kts | 154° |
| 2026-05-05 16:51 | 53.15371 | -4.54394 | 7052 ft | 278 kts | 154° |
| 2026-05-05 16:51 | 53.13643 | -4.52918 | 7874 ft | 281 kts | 154° |
| 2026-05-05 16:52 | 53.11891 | -4.51426 | 8678 ft | 285 kts | 154° |
| 2026-05-05 16:52 | 53.10116 | -4.49918 | 9460 ft | 288 kts | 154° |
| 2026-05-05 16:52 | 53.08322 | -4.48391 | 10204 ft | 293 kts | 154° |
| 2026-05-05 16:52 | 53.06442 | -4.46793 | 10484 ft | 315 kts | 154° |
| 2026-05-05 16:53 | 53.04421 | -4.45079 | 10659 ft | 337 kts | 154° |
| 2026-05-05 16:53 | 53.02295 | -4.43279 | 11136 ft | 347 kts | 154° |
| 2026-05-05 16:53 | 53.00129 | -4.41448 | 11758 ft | 352 kts | 154° |
| 2026-05-05 16:53 | 52.97933 | -4.39594 | 12378 ft | 356 kts | 154° |
| 2026-05-05 16:54 | 52.95715 | -4.37722 | 13007 ft | 359 kts | 154° |
| 2026-05-05 16:54 | 52.93480 | -4.35839 | 13654 ft | 362 kts | 154° |
| 2026-05-05 16:54 | 52.91224 | -4.33937 | 14296 ft | 365 kts | 154° |
| 2026-05-05 16:54 | 52.88949 | -4.32020 | 14817 ft | 369 kts | 154° |
| 2026-05-05 16:55 | 52.86660 | -4.30096 | 14974 ft | 370 kts | 154° |
| 2026-05-05 16:55 | 52.84305 | -4.28120 | 15011 ft | 389 kts | 154° |
| 2026-05-05 16:55 | 52.81859 | -4.26073 | 15010 ft | 398 kts | 154° |
| 2026-05-05 16:55 | 52.79382 | -4.24002 | 15009 ft | 400 kts | 154° |
| 2026-05-05 16:56 | 52.76899 | -4.21927 | 15010 ft | 400 kts | 154° |
| 2026-05-05 16:56 | 52.74411 | -4.19853 | 15009 ft | 400 kts | 154° |
| 2026-05-05 16:56 | 52.71925 | -4.17783 | 15008 ft | 400 kts | 154° |
| 2026-05-05 16:56 | 52.69440 | -4.15715 | 15008 ft | 400 kts | 154° |
| 2026-05-05 16:57 | 52.66953 | -4.13645 | 15008 ft | 400 kts | 154° |
| 2026-05-05 16:57 | 52.64472 | -4.11580 | 15009 ft | 400 kts | 154° |
| 2026-05-05 16:57 | 52.61986 | -4.09512 | 15009 ft | 400 kts | 154° |
| 2026-05-05 16:57 | 52.59499 | -4.07449 | 15008 ft | 400 kts | 154° |
| 2026-05-05 16:58 | 52.57011 | -4.05390 | 15009 ft | 401 kts | 154° |
| 2026-05-05 16:58 | 52.54519 | -4.03333 | 15009 ft | 401 kts | 154° |
| 2026-05-05 16:58 | 52.52028 | -4.01275 | 15011 ft | 400 kts | 154° |
| 2026-05-05 16:58 | 52.49539 | -3.99223 | 15012 ft | 400 kts | 154° |
| 2026-05-05 16:59 | 52.47891 | -3.97868 | 15012 ft | 400 kts | 154° |
| 2026-05-05 16:59 | 52.44559 | -3.95136 | 15008 ft | 400 kts | 154° |
| 2026-05-05 16:59 | 52.42068 | -3.93095 | 15007 ft | 401 kts | 154° |
| 2026-05-05 16:59 | 52.39576 | -3.91048 | 15009 ft | 401 kts | 154° |
| 2026-05-05 17:00 | 52.37088 | -3.89002 | 15005 ft | 401 kts | 154° |
| 2026-05-05 17:00 | 52.34594 | -3.86954 | 15002 ft | 401 kts | 154° |
| 2026-05-05 17:00 | 52.32100 | -3.84913 | 15004 ft | 401 kts | 154° |
| 2026-05-05 17:00 | 52.29639 | -3.82904 | 15003 ft | 401 kts | 154° |
| 2026-05-05 17:01 | 52.27954 | -3.81532 | 15003 ft | 401 kts | 154° |
| 2026-05-05 17:01 | 52.24646 | -3.78848 | 15002 ft | 401 kts | 154° |
| 2026-05-05 17:01 | 52.22146 | -3.76821 | 14998 ft | 401 kts | 154° |
| 2026-05-05 17:01 | 52.19648 | -3.74791 | 14999 ft | 401 kts | 154° |
| 2026-05-05 17:02 | 52.17959 | -3.73418 | 15000 ft | 401 kts | 154° |
| 2026-05-05 17:02 | 52.14646 | -3.70733 | 15002 ft | 402 kts | 154° |
| 2026-05-05 17:02 | 52.12959 | -3.69371 | 15004 ft | 402 kts | 154° |
| 2026-05-05 17:02 | 52.10508 | -3.67395 | 14837 ft | 391 kts | 154° |
| 2026-05-05 17:03 | 52.08101 | -3.65455 | 14412 ft | 383 kts | 154° |
| 2026-05-05 17:03 | 52.05724 | -3.63540 | 13789 ft | 380 kts | 154° |
| 2026-05-05 17:03 | 52.03335 | -3.61617 | 13196 ft | 377 kts | 154° |
| 2026-05-05 17:03 | 52.01024 | -3.59758 | 12571 ft | 375 kts | 154° |
| 2026-05-05 17:04 | 51.98706 | -3.57894 | 11979 ft | 371 kts | 154° |
| 2026-05-05 17:04 | 51.96343 | -3.56151 | 11446 ft | 366 kts | 161° |
| 2026-05-05 17:04 | 51.93883 | -3.55242 | 10871 ft | 361 kts | 175° |
| 2026-05-05 17:04 | 51.91426 | -3.55226 | 10506 ft | 352 kts | 184° |
| 2026-05-05 17:05 | 51.89035 | -3.55446 | 10380 ft | 337 kts | 184° |
| 2026-05-05 17:05 | 51.86740 | -3.55629 | 10252 ft | 324 kts | 184° |
| 2026-05-05 17:05 | 51.84525 | -3.55796 | 10126 ft | 313 kts | 184° |
| 2026-05-05 17:05 | 51.82380 | -3.55956 | 9999 ft | 303 kts | 184° |
| 2026-05-05 17:06 | 51.80306 | -3.56109 | 9845 ft | 294 kts | 184° |
| 2026-05-05 17:06 | 51.78270 | -3.56261 | 9519 ft | 292 kts | 184° |
| 2026-05-05 17:06 | 51.76242 | -3.56418 | 9197 ft | 291 kts | 184° |
| 2026-05-05 17:06 | 51.74225 | -3.56576 | 8864 ft | 290 kts | 184° |
| 2026-05-05 17:07 | 51.72218 | -3.56734 | 8533 ft | 288 kts | 184° |
| 2026-05-05 17:07 | 51.70217 | -3.56891 | 8188 ft | 287 kts | 184° |
| 2026-05-05 17:07 | 51.68226 | -3.57047 | 7822 ft | 284 kts | 184° |
| 2026-05-05 17:07 | 51.66259 | -3.57200 | 7221 ft | 282 kts | 184° |
| 2026-05-05 17:08 | 51.64304 | -3.57356 | 6627 ft | 280 kts | 184° |
| 2026-05-05 17:08 | 51.62360 | -3.57510 | 6104 ft | 281 kts | 184° |
| 2026-05-05 17:08 | 51.60284 | -3.57673 | 5822 ft | 315 kts | 184° |
| 2026-05-05 17:08 | 51.58147 | -3.57839 | 5672 ft | 296 kts | 184° |
| 2026-05-05 17:09 | 51.56168 | -3.57987 | 5492 ft | 275 kts | 184° |
| 2026-05-05 17:09 | 51.54285 | -3.58129 | 5086 ft | 267 kts | 184° |
| 2026-05-05 17:09 | 51.52455 | -3.58266 | 4659 ft | 261 kts | 184° |
| 2026-05-05 17:09 | 51.50665 | -3.58403 | 4234 ft | 255 kts | 184° |
| 2026-05-05 17:10 | 51.48909 | -3.58430 | 3808 ft | 250 kts | 172° |
| 2026-05-05 17:10 | 51.47329 | -3.57413 | 3386 ft | 246 kts | 143° |
| 2026-05-05 17:10 | 51.46251 | -3.55348 | 2926 ft | 242 kts | 117° |
| 2026-05-05 17:10 | 51.45505 | -3.52962 | 2584 ft | 243 kts | 116° |
| 2026-05-05 17:11 | 51.44750 | -3.50532 | 2263 ft | 243 kts | 117° |
| 2026-05-05 17:11 | 51.43991 | -3.48107 | 1939 ft | 244 kts | 117° |
| 2026-05-05 17:11 | 51.43228 | -3.45678 | 1614 ft | 236 kts | 117° |
| 2026-05-05 17:11 | 51.42509 | -3.43387 | 1309 ft | 226 kts | 117° |
| 2026-05-05 17:12 | 51.41843 | -3.41266 | 1037 ft | 205 kts | 117° |
| 2026-05-05 17:12 | 51.41235 | -3.39334 | 773 ft | 184 kts | 117° |
| 2026-05-05 17:12 | 51.40694 | -3.37614 | 537 ft | 160 kts | 118° |
| 2026-05-05 17:12 | 51.40226 | -3.36122 | 302 ft | 144 kts | 117° |
| 2026-05-05 17:13 | 51.39817 | -3.34820 | 219 ft | 118 kts | 118° |
| 2026-05-05 17:13 | 51.39581 | -3.34084 | 222 ft | 37 kts | 116° |
| 2026-05-05 17:13 | 51.39468 | -3.33723 | 222 ft | 36 kts | 115° |
| 2026-05-05 17:13 | 51.39359 | -3.33372 | 226 ft | 34 kts | 116° |
| 2026-05-05 17:14 | 51.39285 | -3.33133 | 224 ft | 16 kts | 104° |
| 2026-05-05 17:14 | 51.39336 | -3.33081 | 222 ft | 9 kts | 27° |
| 2026-05-05 17:14 | 51.39392 | -3.33039 | 220 ft | 9 kts | 13° |
| 2026-05-05 17:14 | 51.39451 | -3.33094 | 220 ft | 11 kts | 313° |
| 2026-05-05 17:15 | 51.39490 | -3.33204 | 222 ft | 12 kts | 296° |
| 2026-05-05 17:15 | 51.39532 | -3.33341 | 220 ft | 16 kts | 296° |
| 2026-05-05 17:15 | 51.39590 | -3.33525 | 221 ft | 21 kts | 297° |
| 2026-05-05 17:15 | 51.39659 | -3.33743 | 223 ft | 22 kts | 296° |
| 2026-05-05 17:16 | 51.39730 | -3.33962 | 221 ft | 23 kts | 297° |
| 2026-05-05 17:16 | 51.39794 | -3.34164 | 221 ft | 21 kts | 297° |
| 2026-05-05 17:16 | 51.39858 | -3.34282 | 223 ft | 11 kts | 7° |
| 2026-05-05 17:16 | 51.39935 | -3.34230 | 222 ft | 14 kts | 25° |
| 2026-05-05 17:17 | 51.39961 | -3.34206 | 222 ft | 3 kts | 38° |
| 2026-05-05 17:17 | 51.39963 | -3.34184 | 221 ft | 1 kts | 101° |
| 2026-05-05 17:17 | 51.39959 | -3.34172 | 221 ft | 3 kts | 115° |
| 2026-05-05 17:17 | 51.39954 | -3.34154 | 221 ft | 0 kts | 116° |
| 2026-05-05 17:18 | 51.39952 | -3.34149 | 221 ft | 1 kts | 116° |
| 2026-05-05 17:18 | 51.39947 | -3.34132 | 222 ft | 0 kts | 117° |
| 2026-05-05 17:18 | 51.39946 | -3.34131 | 222 ft | 0 kts | 117° |